CheckWX is a tool to help pilots better visualize weather data.  It is not intended as a substitute for an official pre-flight weather briefing.

04:17:29 UTC

42J METAR
Keystone Airpark
Keystone Heights, Florida, USA
Current

22 mins ago

K42J 270355Z AUTO 00000KT 10SM SCT055 23/21 A3012 RMK A01 TSNO
Observed
Jun-27 @ 03:55 UTC
Visibility
10 SM
Flight Rules
VFR
Cloud Levels
  • Scattered at 5,500' AGL
Temperature
23°C / 73°F
Dewpoint
21°C / 70°F
Humidity
89%
Altimeter
30.12" Hg
Pressure
1020.02 hPa
Previous

42 mins ago

K42J 270335Z AUTO 00000KT 10SM FEW049 SCT055 24/20 A3012 RMK A01 TSNO
Observed
Jun-27 @ 03:35 UTC
Visibility
10 SM
Flight Rules
VFR
Cloud Levels
  • Few at 4,900' AGL
  • Scattered at 5,500' AGL
Temperature
24°C / 75°F
Dewpoint
20°C / 68°F
Humidity
78%
Altimeter
30.12" Hg
Pressure
1020.02 hPa
Previous

1 hour ago

K42J 270315Z AUTO 00000KT 10SM FEW049 FEW060 24/21 A3012 RMK A01 TSNO
Observed
Jun-27 @ 03:15 UTC
Visibility
10 SM
Flight Rules
VFR
Cloud Levels
  • Few at 4,900' AGL
  • Few at 6,000' AGL
Temperature
24°C / 75°F
Dewpoint
21°C / 70°F
Humidity
83%
Altimeter
30.12" Hg
Pressure
1020.02 hPa